Terminal Aerodrome Forecast
Issued by NWS Sioux Falls, SD

Home | Current Version | Previous Version | Graphics & Text | Print | Product List | Glossary Off
Versions: 1 2 3 4 5 6 7 8 9 10 11 12 13

000
FTUS43 KFSD 190520
TAFSUX
TAF
KSUX 190520Z 1906/2006 34007KT P6SM SCT070 BKN250
     FM190900 33004KT P6SM SCT250
     FM191600 05005KT P6SM FEW150
     FM200200 10005KT P6SM FEW250=

USA.gov is the U.S. government's official web portal to all federal, state and local government web resources and services.